sensor_id;sensor_type;location;lat;lon;timestamp;temperature;humidity
8914;DHT22;4492;48.736;9.092;2023-07-31T00:01:03;13.40;99.90
8914;DHT22;4492;48.736;9.092;2023-07-31T00:03:28;13.30;99.90
8914;DHT22;4492;48.736;9.092;2023-07-31T00:05:54;13.20;99.90
8914;DHT22;4492;48.736;9.092;2023-07-31T00:08:19;13.20;99.90
8914;DHT22;4492;48.736;9.092;2023-07-31T00:10:45;13.20;99.90
8914;DHT22;4492;48.736;9.092;2023-07-31T00:13:11;13.20;99.90
8914;DHT22;4492;48.736;9.092;2023-07-31T00:15:36;13.20;99.90
8914;DHT22;4492;48.736;9.092;2023-07-31T00:18:02;13.40;99.90
8914;DHT22;4492;48.736;9.092;2023-07-31T00:20:27;13.30;99.90
8914;DHT22;4492;48.736;9.092;2023-07-31T00:22:53;13.30;99.90
8914;DHT22;4492;48.736;9.092;2023-07-31T00:25:18;13.30;99.90
8914;DHT22;4492;48.736;9.092;2023-07-31T00:27:44;13.40;99.90
8914;DHT22;4492;48.736;9.092;2023-07-31T00:30:11;13.40;99.90
8914;DHT22;4492;48.736;9.092;2023-07-31T00:32:37;13.40;99.90
8914;DHT22;4492;48.736;9.092;2023-07-31T00:35:02;13.40;99.90
8914;DHT22;4492;48.736;9.092;2023-07-31T00:37:28;13.40;99.90
8914;DHT22;4492;48.736;9.092;2023-07-31T00:39:54;13.40;99.90
8914;DHT22;4492;48.736;9.092;2023-07-31T00:42:19;13.40;99.90
8914;DHT22;4492;48.736;9.092;2023-07-31T00:44:45;13.40;99.90
8914;DHT22;4492;48.736;9.092;2023-07-31T00:47:10;13.40;99.90
8914;DHT22;4492;48.736;9.092;2023-07-31T00:49:36;13.40;99.90
8914;DHT22;4492;48.736;9.092;2023-07-31T00:52:02;13.40;99.90
8914;DHT22;4492;48.736;9.092;2023-07-31T00:54:28;13.40;99.90
8914;DHT22;4492;48.736;9.092;2023-07-31T00:56:54;13.40;99.90
8914;DHT22;4492;48.736;9.092;2023-07-31T00:59:20;13.30;99.90
8914;DHT22;4492;48.736;9.092;2023-07-31T01:01:46;13.30;99.90
8914;DHT22;4492;48.736;9.092;2023-07-31T01:04:12;13.20;99.90
8914;DHT22;4492;48.736;9.092;2023-07-31T01:09:34;13.20;99.90
8914;DHT22;4492;48.736;9.092;2023-07-31T01:12:03;13.20;99.90
8914;DHT22;4492;48.736;9.092;2023-07-31T01:14:29;13.10;99.90
8914;DHT22;4492;48.736;9.092;2023-07-31T01:16:55;13.10;99.90
8914;DHT22;4492;48.736;9.092;2023-07-31T01:19:25;13.10;99.90
8914;DHT22;4492;48.736;9.092;2023-07-31T01:24:50;13.10;99.90
8914;DHT22;4492;48.736;9.092;2023-07-31T01:27:25;13.10;99.90
8914;DHT22;4492;48.736;9.092;2023-07-31T01:30:00;13.10;99.90
8914;DHT22;4492;48.736;9.092;2023-07-31T01:32:29;13.10;99.90
8914;DHT22;4492;48.736;9.092;2023-07-31T01:34:55;13.00;99.90
8914;DHT22;4492;48.736;9.092;2023-07-31T01:37:28;13.10;99.90
8914;DHT22;4492;48.736;9.092;2023-07-31T01:39:54;13.10;99.90
8914;DHT22;4492;48.736;9.092;2023-07-31T01:42:19;13.10;99.90
8914;DHT22;4492;48.736;9.092;2023-07-31T01:44:45;13.10;99.90
8914;DHT22;4492;48.736;9.092;2023-07-31T01:47:10;13.10;99.90
8914;DHT22;4492;48.736;9.092;2023-07-31T01:49:36;13.00;99.90
8914;DHT22;4492;48.736;9.092;2023-07-31T01:52:01;13.00;99.90
8914;DHT22;4492;48.736;9.092;2023-07-31T01:54:27;13.00;99.90
8914;DHT22;4492;48.736;9.092;2023-07-31T01:56:52;12.90;99.90
8914;DHT22;4492;48.736;9.092;2023-07-31T01:59:18;12.90;99.90
8914;DHT22;4492;48.736;9.092;2023-07-31T02:01:43;12.90;99.90
8914;DHT22;4492;48.736;9.092;2023-07-31T02:04:09;12.90;99.90
8914;DHT22;4492;48.736;9.092;2023-07-31T02:06:34;12.90;99.90
8914;DHT22;4492;48.736;9.092;2023-07-31T02:09:00;12.90;99.90
8914;DHT22;4492;48.736;9.092;2023-07-31T02:11:25;12.90;99.90
8914;DHT22;4492;48.736;9.092;2023-07-31T02:13:51;12.90;99.90
8914;DHT22;4492;48.736;9.092;2023-07-31T02:16:16;12.90;99.90
8914;DHT22;4492;48.736;9.092;2023-07-31T02:18:42;12.90;99.90
8914;DHT22;4492;48.736;9.092;2023-07-31T02:21:07;12.90;99.90
8914;DHT22;4492;48.736;9.092;2023-07-31T02:23:33;12.90;99.90
8914;DHT22;4492;48.736;9.092;2023-07-31T02:25:58;12.90;99.90
8914;DHT22;4492;48.736;9.092;2023-07-31T02:28:24;12.90;99.90
8914;DHT22;4492;48.736;9.092;2023-07-31T02:30:50;12.90;99.90
8914;DHT22;4492;48.736;9.092;2023-07-31T02:33:17;12.90;99.90
8914;DHT22;4492;48.736;9.092;2023-07-31T02:35:43;12.90;99.90
8914;DHT22;4492;48.736;9.092;2023-07-31T02:38:08;12.90;99.90
8914;DHT22;4492;48.736;9.092;2023-07-31T02:40:34;12.90;99.90
8914;DHT22;4492;48.736;9.092;2023-07-31T02:42:59;13.00;99.90
8914;DHT22;4492;48.736;9.092;2023-07-31T02:45:25;13.00;99.90
8914;DHT22;4492;48.736;9.092;2023-07-31T02:47:50;13.00;99.90
8914;DHT22;4492;48.736;9.092;2023-07-31T02:50:16;13.00;99.90
8914;DHT22;4492;48.736;9.092;2023-07-31T02:52:41;13.00;99.90
8914;DHT22;4492;48.736;9.092;2023-07-31T02:55:07;13.00;99.90
8914;DHT22;4492;48.736;9.092;2023-07-31T02:57:33;13.00;99.90
8914;DHT22;4492;48.736;9.092;2023-07-31T02:59:58;13.00;99.90
8914;DHT22;4492;48.736;9.092;2023-07-31T03:02:24;12.90;99.90
8914;DHT22;4492;48.736;9.092;2023-07-31T03:04:49;12.90;99.90
8914;DHT22;4492;48.736;9.092;2023-07-31T03:07:15;12.90;99.90
8914;DHT22;4492;48.736;9.092;2023-07-31T03:09:40;12.90;99.90
8914;DHT22;4492;48.736;9.092;2023-07-31T03:12:06;12.90;99.90
8914;DHT22;4492;48.736;9.092;2023-07-31T03:14:32;12.90;99.90
8914;DHT22;4492;48.736;9.092;2023-07-31T03:16:57;12.90;99.90
8914;DHT22;4492;48.736;9.092;2023-07-31T03:19:23;13.00;99.90
8914;DHT22;4492;48.736;9.092;2023-07-31T03:21:48;13.00;99.90
8914;DHT22;4492;48.736;9.092;2023-07-31T03:24:14;13.00;99.90
8914;DHT22;4492;48.736;9.092;2023-07-31T03:26:39;13.00;99.90
8914;DHT22;4492;48.736;9.092;2023-07-31T03:29:07;13.00;99.90
8914;DHT22;4492;48.736;9.092;2023-07-31T03:31:33;13.00;99.90
8914;DHT22;4492;48.736;9.092;2023-07-31T03:33:58;13.00;99.90
8914;DHT22;4492;48.736;9.092;2023-07-31T03:36:24;12.90;99.90
8914;DHT22;4492;48.736;9.092;2023-07-31T03:38:50;13.00;99.90
8914;DHT22;4492;48.736;9.092;2023-07-31T03:41:16;13.00;99.90
8914;DHT22;4492;48.736;9.092;2023-07-31T03:43:41;13.00;99.90
8914;DHT22;4492;48.736;9.092;2023-07-31T03:46:07;13.10;99.90
8914;DHT22;4492;48.736;9.092;2023-07-31T03:48:32;13.10;99.90
8914;DHT22;4492;48.736;9.092;2023-07-31T03:50:58;13.20;99.90
8914;DHT22;4492;48.736;9.092;2023-07-31T03:53:23;13.30;99.90
8914;DHT22;4492;48.736;9.092;2023-07-31T03:55:49;13.30;99.90
8914;DHT22;4492;48.736;9.092;2023-07-31T03:58:14;13.40;99.90
8914;DHT22;4492;48.736;9.092;2023-07-31T04:00:40;13.40;99.90
8914;DHT22;4492;48.736;9.092;2023-07-31T04:03:06;13.40;99.90
8914;DHT22;4492;48.736;9.092;2023-07-31T04:05:32;13.50;99.90
8914;DHT22;4492;48.736;9.092;2023-07-31T04:07:58;13.60;99.90
8914;DHT22;4492;48.736;9.092;2023-07-31T04:10:23;13.60;99.90
8914;DHT22;4492;48.736;9.092;2023-07-31T04:12:49;13.70;99.90
8914;DHT22;4492;48.736;9.092;2023-07-31T04:15:15;13.70;99.90
8914;DHT22;4492;48.736;9.092;2023-07-31T04:17:40;13.80;99.90
8914;DHT22;4492;48.736;9.092;2023-07-31T04:20:06;13.80;99.90
8914;DHT22;4492;48.736;9.092;2023-07-31T04:22:32;13.90;99.90
8914;DHT22;4492;48.736;9.092;2023-07-31T04:24:57;13.90;99.90
8914;DHT22;4492;48.736;9.092;2023-07-31T04:27:23;14.00;99.90
8914;DHT22;4492;48.736;9.092;2023-07-31T04:29:48;14.00;99.90
8914;DHT22;4492;48.736;9.092;2023-07-31T04:32:14;14.10;99.90
8914;DHT22;4492;48.736;9.092;2023-07-31T04:34:42;14.10;99.90
8914;DHT22;4492;48.736;9.092;2023-07-31T04:37:07;14.20;99.90
8914;DHT22;4492;48.736;9.092;2023-07-31T04:39:33;14.20;99.90
8914;DHT22;4492;48.736;9.092;2023-07-31T04:41:58;14.20;99.90
8914;DHT22;4492;48.736;9.092;2023-07-31T04:44:24;14.30;99.90
8914;DHT22;4492;48.736;9.092;2023-07-31T04:46:49;14.30;99.90
8914;DHT22;4492;48.736;9.092;2023-07-31T04:49:15;14.40;99.90
8914;DHT22;4492;48.736;9.092;2023-07-31T04:51:40;14.40;99.90
8914;DHT22;4492;48.736;9.092;2023-07-31T04:54:06;14.40;99.90
8914;DHT22;4492;48.736;9.092;2023-07-31T04:56:31;14.50;99.90
8914;DHT22;4492;48.736;9.092;2023-07-31T04:58:57;14.50;99.90
8914;DHT22;4492;48.736;9.092;2023-07-31T05:01:22;14.50;99.90
8914;DHT22;4492;48.736;9.092;2023-07-31T05:03:48;14.70;99.90
8914;DHT22;4492;48.736;9.092;2023-07-31T05:06:13;14.50;99.90
8914;DHT22;4492;48.736;9.092;2023-07-31T05:08:40;14.50;99.90
8914;DHT22;4492;48.736;9.092;2023-07-31T05:11:06;14.50;99.90
8914;DHT22;4492;48.736;9.092;2023-07-31T05:13:31;14.60;99.90
8914;DHT22;4492;48.736;9.092;2023-07-31T05:15:57;14.60;99.90
8914;DHT22;4492;48.736;9.092;2023-07-31T05:18:22;14.60;99.90
8914;DHT22;4492;48.736;9.092;2023-07-31T05:20:48;14.70;99.90
8914;DHT22;4492;48.736;9.092;2023-07-31T05:23:13;14.70;99.90
8914;DHT22;4492;48.736;9.092;2023-07-31T05:25:39;14.70;99.90
8914;DHT22;4492;48.736;9.092;2023-07-31T05:28:05;14.80;99.90
8914;DHT22;4492;48.736;9.092;2023-07-31T05:30:31;14.80;99.90
8914;DHT22;4492;48.736;9.092;2023-07-31T05:32:56;14.80;99.90
8914;DHT22;4492;48.736;9.092;2023-07-31T05:35:22;14.90;99.90
8914;DHT22;4492;48.736;9.092;2023-07-31T05:37:48;15.00;99.90
8914;DHT22;4492;48.736;9.092;2023-07-31T05:40:14;15.10;99.90
8914;DHT22;4492;48.736;9.092;2023-07-31T05:42:39;15.20;99.90
8914;DHT22;4492;48.736;9.092;2023-07-31T05:45:06;15.40;99.90
8914;DHT22;4492;48.736;9.092;2023-07-31T05:47:32;15.60;99.90
8914;DHT22;4492;48.736;9.092;2023-07-31T05:49:57;15.80;99.90
8914;DHT22;4492;48.736;9.092;2023-07-31T05:52:23;15.90;99.90
8914;DHT22;4492;48.736;9.092;2023-07-31T05:54:48;16.00;99.90
8914;DHT22;4492;48.736;9.092;2023-07-31T05:57:14;16.10;99.90
8914;DHT22;4492;48.736;9.092;2023-07-31T05:59:40;16.10;99.90
8914;DHT22;4492;48.736;9.092;2023-07-31T06:02:06;16.20;99.90
8914;DHT22;4492;48.736;9.092;2023-07-31T06:04:31;16.30;99.90
8914;DHT22;4492;48.736;9.092;2023-07-31T06:06:57;16.40;99.90
8914;DHT22;4492;48.736;9.092;2023-07-31T06:09:22;16.50;99.90
8914;DHT22;4492;48.736;9.092;2023-07-31T06:11:48;16.60;99.90
8914;DHT22;4492;48.736;9.092;2023-07-31T06:14:13;16.60;99.90
8914;DHT22;4492;48.736;9.092;2023-07-31T06:16:40;16.70;99.90
8914;DHT22;4492;48.736;9.092;2023-07-31T06:19:05;16.70;99.90
8914;DHT22;4492;48.736;9.092;2023-07-31T06:21:32;16.70;99.90
8914;DHT22;4492;48.736;9.092;2023-07-31T06:23:58;16.80;99.90
8914;DHT22;4492;48.736;9.092;2023-07-31T06:26:23;17.00;99.90
8914;DHT22;4492;48.736;9.092;2023-07-31T06:28:49;17.10;99.90
8914;DHT22;4492;48.736;9.092;2023-07-31T06:31:14;17.20;99.90
8914;DHT22;4492;48.736;9.092;2023-07-31T06:33:40;17.30;99.90
8914;DHT22;4492;48.736;9.092;2023-07-31T06:36:06;17.30;99.90
8914;DHT22;4492;48.736;9.092;2023-07-31T06:38:31;17.30;99.90
8914;DHT22;4492;48.736;9.092;2023-07-31T06:40:57;17.30;99.90
8914;DHT22;4492;48.736;9.092;2023-07-31T06:43:22;17.40;99.90
8914;DHT22;4492;48.736;9.092;2023-07-31T06:45:48;17.50;99.90
8914;DHT22;4492;48.736;9.092;2023-07-31T06:48:16;17.60;99.90
8914;DHT22;4492;48.736;9.092;2023-07-31T06:50:42;17.80;99.90
8914;DHT22;4492;48.736;9.092;2023-07-31T06:53:07;18.00;99.90
8914;DHT22;4492;48.736;9.092;2023-07-31T06:55:33;18.10;99.90
8914;DHT22;4492;48.736;9.092;2023-07-31T06:57:58;18.30;99.90
8914;DHT22;4492;48.736;9.092;2023-07-31T07:00:24;18.40;99.90
8914;DHT22;4492;48.736;9.092;2023-07-31T07:02:50;18.40;99.90
8914;DHT22;4492;48.736;9.092;2023-07-31T07:05:19;18.40;99.90
8914;DHT22;4492;48.736;9.092;2023-07-31T07:07:44;18.50;99.90
8914;DHT22;4492;48.736;9.092;2023-07-31T07:10:10;18.50;99.70
8914;DHT22;4492;48.736;9.092;2023-07-31T07:12:36;18.60;99.70
8914;DHT22;4492;48.736;9.092;2023-07-31T07:15:02;18.70;99.80
8914;DHT22;4492;48.736;9.092;2023-07-31T07:17:29;18.70;99.80
8914;DHT22;4492;48.736;9.092;2023-07-31T07:19:58;18.90;98.90
8914;DHT22;4492;48.736;9.092;2023-07-31T07:22:24;19.10;98.70
8914;DHT22;4492;48.736;9.092;2023-07-31T07:24:50;19.40;98.40
8914;DHT22;4492;48.736;9.092;2023-07-31T07:27:15;19.60;98.00
8914;DHT22;4492;48.736;9.092;2023-07-31T07:29:41;19.90;97.40
8914;DHT22;4492;48.736;9.092;2023-07-31T07:32:07;19.90;97.10
8914;DHT22;4492;48.736;9.092;2023-07-31T07:34:32;19.70;97.90
8914;DHT22;4492;48.736;9.092;2023-07-31T07:36:58;19.50;97.30
8914;DHT22;4492;48.736;9.092;2023-07-31T07:39:23;19.50;97.70
8914;DHT22;4492;48.736;9.092;2023-07-31T07:41:50;19.60;98.00
8914;DHT22;4492;48.736;9.092;2023-07-31T07:44:15;19.60;97.20
8914;DHT22;4492;48.736;9.092;2023-07-31T07:46:41;19.60;96.50
8914;DHT22;4492;48.736;9.092;2023-07-31T07:49:06;19.80;96.70
8914;DHT22;4492;48.736;9.092;2023-07-31T07:51:32;19.90;96.10
8914;DHT22;4492;48.736;9.092;2023-07-31T07:53:58;20.00;96.60
8914;DHT22;4492;48.736;9.092;2023-07-31T07:56:26;20.10;96.00
8914;DHT22;4492;48.736;9.092;2023-07-31T07:58:52;20.20;96.00
8914;DHT22;4492;48.736;9.092;2023-07-31T08:01:17;20.30;96.00
8914;DHT22;4492;48.736;9.092;2023-07-31T08:03:43;20.10;95.70
8914;DHT22;4492;48.736;9.092;2023-07-31T08:06:09;20.10;95.30
8914;DHT22;4492;48.736;9.092;2023-07-31T08:08:35;19.90;95.40
8914;DHT22;4492;48.736;9.092;2023-07-31T08:11:01;19.60;95.80
8914;DHT22;4492;48.736;9.092;2023-07-31T08:13:27;19.60;96.50
8914;DHT22;4492;48.736;9.092;2023-07-31T08:15:52;19.60;96.30
8914;DHT22;4492;48.736;9.092;2023-07-31T08:18:18;19.70;96.40
8914;DHT22;4492;48.736;9.092;2023-07-31T08:20:44;19.90;95.50
8914;DHT22;4492;48.736;9.092;2023-07-31T08:23:10;20.00;95.70
8914;DHT22;4492;48.736;9.092;2023-07-31T08:25:36;20.10;96.00
8914;DHT22;4492;48.736;9.092;2023-07-31T08:28:02;20.50;95.00
8914;DHT22;4492;48.736;9.092;2023-07-31T08:30:28;20.80;94.80
8914;DHT22;4492;48.736;9.092;2023-07-31T08:32:53;21.00;93.80
8914;DHT22;4492;48.736;9.092;2023-07-31T08:35:19;21.10;93.30
8914;DHT22;4492;48.736;9.092;2023-07-31T08:37:44;21.10;93.10
8914;DHT22;4492;48.736;9.092;2023-07-31T08:40:10;21.10;93.30
8914;DHT22;4492;48.736;9.092;2023-07-31T08:42:46;21.20;93.10
8914;DHT22;4492;48.736;9.092;2023-07-31T08:45:17;21.50;92.90
8914;DHT22;4492;48.736;9.092;2023-07-31T08:47:45;21.70;92.50
8914;DHT22;4492;48.736;9.092;2023-07-31T08:50:12;21.90;91.80
8914;DHT22;4492;48.736;9.092;2023-07-31T08:52:38;21.70;91.80
8914;DHT22;4492;48.736;9.092;2023-07-31T08:55:05;21.50;92.40
8914;DHT22;4492;48.736;9.092;2023-07-31T08:57:31;21.30;92.00
8914;DHT22;4492;48.736;9.092;2023-07-31T08:59:59;21.40;92.30
8914;DHT22;4492;48.736;9.092;2023-07-31T09:02:48;21.50;92.10
8914;DHT22;4492;48.736;9.092;2023-07-31T09:05:14;21.40;92.10
8914;DHT22;4492;48.736;9.092;2023-07-31T09:07:42;21.00;93.10
8914;DHT22;4492;48.736;9.092;2023-07-31T09:10:12;21.10;93.30
8914;DHT22;4492;48.736;9.092;2023-07-31T09:12:38;21.20;93.30
8914;DHT22;4492;48.736;9.092;2023-07-31T09:15:05;21.20;92.40
8914;DHT22;4492;48.736;9.092;2023-07-31T09:17:31;21.10;93.10
8914;DHT22;4492;48.736;9.092;2023-07-31T09:20:16;21.00;93.30
8914;DHT22;4492;48.736;9.092;2023-07-31T09:22:42;20.90;93.90
8914;DHT22;4492;48.736;9.092;2023-07-31T09:25:19;21.00;93.30
8914;DHT22;4492;48.736;9.092;2023-07-31T09:27:50;21.00;93.60
8914;DHT22;4492;48.736;9.092;2023-07-31T09:30:17;21.10;93.70
8914;DHT22;4492;48.736;9.092;2023-07-31T09:32:44;21.30;93.00
8914;DHT22;4492;48.736;9.092;2023-07-31T09:35:21;21.30;93.40
8914;DHT22;4492;48.736;9.092;2023-07-31T09:37:55;21.50;92.70
8914;DHT22;4492;48.736;9.092;2023-07-31T09:40:34;21.40;93.00
8914;DHT22;4492;48.736;9.092;2023-07-31T09:43:02;21.30;92.30
8914;DHT22;4492;48.736;9.092;2023-07-31T09:45:28;21.00;92.40
8914;DHT22;4492;48.736;9.092;2023-07-31T09:47:55;21.20;92.80
8914;DHT22;4492;48.736;9.092;2023-07-31T09:50:22;21.40;92.70
8914;DHT22;4492;48.736;9.092;2023-07-31T09:52:48;21.50;92.30
8914;DHT22;4492;48.736;9.092;2023-07-31T09:55:14;21.70;91.60
8914;DHT22;4492;48.736;9.092;2023-07-31T09:57:41;21.90;92.50
8914;DHT22;4492;48.736;9.092;2023-07-31T10:00:11;21.80;91.60
8914;DHT22;4492;48.736;9.092;2023-07-31T10:02:37;21.60;91.80
8914;DHT22;4492;48.736;9.092;2023-07-31T10:05:04;21.70;92.30
8914;DHT22;4492;48.736;9.092;2023-07-31T10:07:31;21.90;92.30
8914;DHT22;4492;48.736;9.092;2023-07-31T10:10:00;22.10;91.50
8914;DHT22;4492;48.736;9.092;2023-07-31T10:12:27;21.90;91.40
8914;DHT22;4492;48.736;9.092;2023-07-31T10:14:56;21.90;91.60
8914;DHT22;4492;48.736;9.092;2023-07-31T10:17:23;22.00;91.30
8914;DHT22;4492;48.736;9.092;2023-07-31T10:19:49;22.30;91.30
8914;DHT22;4492;48.736;9.092;2023-07-31T10:22:16;22.40;90.90
8914;DHT22;4492;48.736;9.092;2023-07-31T10:24:48;22.50;90.90
8914;DHT22;4492;48.736;9.092;2023-07-31T10:27:14;22.60;90.50
8914;DHT22;4492;48.736;9.092;2023-07-31T10:29:41;22.30;90.60
8914;DHT22;4492;48.736;9.092;2023-07-31T10:32:09;22.20;90.90
8914;DHT22;4492;48.736;9.092;2023-07-31T10:34:38;22.30;90.00
8914;DHT22;4492;48.736;9.092;2023-07-31T10:37:20;22.40;89.50
8914;DHT22;4492;48.736;9.092;2023-07-31T10:42:31;22.50;88.80
8914;DHT22;4492;48.736;9.092;2023-07-31T10:45:02;22.80;90.10
8914;DHT22;4492;48.736;9.092;2023-07-31T10:47:28;23.10;89.00
8914;DHT22;4492;48.736;9.092;2023-07-31T10:50:20;23.00;87.80
8914;DHT22;4492;48.736;9.092;2023-07-31T10:52:51;23.20;88.10
8914;DHT22;4492;48.736;9.092;2023-07-31T10:55:31;23.40;85.70
8914;DHT22;4492;48.736;9.092;2023-07-31T10:58:05;23.40;85.80
8914;DHT22;4492;48.736;9.092;2023-07-31T11:00:31;23.40;86.50
8914;DHT22;4492;48.736;9.092;2023-07-31T11:05:49;23.70;85.00
8914;DHT22;4492;48.736;9.092;2023-07-31T11:08:19;23.70;86.30
8914;DHT22;4492;48.736;9.092;2023-07-31T11:10:47;23.50;85.30
8914;DHT22;4492;48.736;9.092;2023-07-31T11:13:13;23.50;86.20
8914;DHT22;4492;48.736;9.092;2023-07-31T11:15:39;23.80;85.70
8914;DHT22;4492;48.736;9.092;2023-07-31T11:18:04;24.10;84.10
8914;DHT22;4492;48.736;9.092;2023-07-31T11:20:35;24.20;84.30
8914;DHT22;4492;48.736;9.092;2023-07-31T11:23:06;23.80;84.20
8914;DHT22;4492;48.736;9.092;2023-07-31T11:25:32;24.00;86.30
8914;DHT22;4492;48.736;9.092;2023-07-31T11:28:09;23.90;85.80
8914;DHT22;4492;48.736;9.092;2023-07-31T11:30:35;23.70;85.20
8914;DHT22;4492;48.736;9.092;2023-07-31T11:33:03;23.60;85.50
8914;DHT22;4492;48.736;9.092;2023-07-31T11:35:30;23.50;86.00
8914;DHT22;4492;48.736;9.092;2023-07-31T11:37:55;23.50;85.80
8914;DHT22;4492;48.736;9.092;2023-07-31T11:40:21;23.60;87.80
8914;DHT22;4492;48.736;9.092;2023-07-31T11:42:46;23.60;87.60
8914;DHT22;4492;48.736;9.092;2023-07-31T11:45:12;23.60;86.40
8914;DHT22;4492;48.736;9.092;2023-07-31T11:47:38;23.50;87.10
8914;DHT22;4492;48.736;9.092;2023-07-31T11:50:04;23.30;87.20
8914;DHT22;4492;48.736;9.092;2023-07-31T11:52:34;23.20;87.40
8914;DHT22;4492;48.736;9.092;2023-07-31T11:55:01;23.00;88.20
8914;DHT22;4492;48.736;9.092;2023-07-31T11:57:28;22.90;87.70
8914;DHT22;4492;48.736;9.092;2023-07-31T11:59:54;22.90;88.20
8914;DHT22;4492;48.736;9.092;2023-07-31T12:02:20;22.90;88.80
8914;DHT22;4492;48.736;9.092;2023-07-31T12:04:47;22.90;87.90
8914;DHT22;4492;48.736;9.092;2023-07-31T12:07:13;23.00;88.20
8914;DHT22;4492;48.736;9.092;2023-07-31T12:09:50;23.20;88.80
8914;DHT22;4492;48.736;9.092;2023-07-31T12:12:20;23.40;88.20
8914;DHT22;4492;48.736;9.092;2023-07-31T12:14:46;23.50;89.30
8914;DHT22;4492;48.736;9.092;2023-07-31T12:17:11;23.50;86.70
8914;DHT22;4492;48.736;9.092;2023-07-31T12:19:37;23.30;87.40
8914;DHT22;4492;48.736;9.092;2023-07-31T12:22:14;23.20;87.30
8914;DHT22;4492;48.736;9.092;2023-07-31T12:24:44;23.10;87.20
8914;DHT22;4492;48.736;9.092;2023-07-31T12:27:14;22.90;88.00
8914;DHT22;4492;48.736;9.092;2023-07-31T12:29:42;22.80;87.80
8914;DHT22;4492;48.736;9.092;2023-07-31T12:32:25;22.70;88.10
8914;DHT22;4492;48.736;9.092;2023-07-31T12:34:51;22.50;89.10
8914;DHT22;4492;48.736;9.092;2023-07-31T12:37:17;22.50;88.70
8914;DHT22;4492;48.736;9.092;2023-07-31T12:39:42;22.40;89.60
8914;DHT22;4492;48.736;9.092;2023-07-31T12:42:08;22.20;90.00
8914;DHT22;4492;48.736;9.092;2023-07-31T12:44:33;22.20;89.60
8914;DHT22;4492;48.736;9.092;2023-07-31T12:46:59;22.20;90.10
8914;DHT22;4492;48.736;9.092;2023-07-31T12:49:24;22.10;89.80
8914;DHT22;4492;48.736;9.092;2023-07-31T12:51:50;22.00;90.20
8914;DHT22;4492;48.736;9.092;2023-07-31T12:54:15;22.10;89.50
8914;DHT22;4492;48.736;9.092;2023-07-31T12:56:41;22.50;89.30
8914;DHT22;4492;48.736;9.092;2023-07-31T12:59:07;22.70;88.10
8914;DHT22;4492;48.736;9.092;2023-07-31T13:01:32;23.10;88.50
8914;DHT22;4492;48.736;9.092;2023-07-31T13:03:58;23.50;87.30
8914;DHT22;4492;48.736;9.092;2023-07-31T13:06:25;23.60;85.50
8914;DHT22;4492;48.736;9.092;2023-07-31T13:08:51;23.80;85.60
8914;DHT22;4492;48.736;9.092;2023-07-31T13:11:16;24.10;84.20
8914;DHT22;4492;48.736;9.092;2023-07-31T13:13:42;24.20;82.90
8914;DHT22;4492;48.736;9.092;2023-07-31T13:16:07;24.20;83.70
8914;DHT22;4492;48.736;9.092;2023-07-31T13:18:33;24.20;83.70
8914;DHT22;4492;48.736;9.092;2023-07-31T13:20:58;24.20;84.40
8914;DHT22;4492;48.736;9.092;2023-07-31T13:23:24;24.60;86.00
8914;DHT22;4492;48.736;9.092;2023-07-31T13:25:49;24.70;84.60
8914;DHT22;4492;48.736;9.092;2023-07-31T13:28:15;24.80;83.80
8914;DHT22;4492;48.736;9.092;2023-07-31T13:30:40;24.70;83.40
8914;DHT22;4492;48.736;9.092;2023-07-31T13:33:06;24.70;83.70
8914;DHT22;4492;48.736;9.092;2023-07-31T13:35:31;24.50;85.00
8914;DHT22;4492;48.736;9.092;2023-07-31T13:37:57;24.50;85.10
8914;DHT22;4492;48.736;9.092;2023-07-31T13:40:22;24.70;85.30
8914;DHT22;4492;48.736;9.092;2023-07-31T13:42:48;24.80;83.30
8914;DHT22;4492;48.736;9.092;2023-07-31T13:45:14;24.90;83.00
8914;DHT22;4492;48.736;9.092;2023-07-31T13:47:39;24.90;82.40
8914;DHT22;4492;48.736;9.092;2023-07-31T13:50:05;24.90;83.70
8914;DHT22;4492;48.736;9.092;2023-07-31T13:52:31;25.00;83.40
8914;DHT22;4492;48.736;9.092;2023-07-31T13:54:56;25.00;82.90
8914;DHT22;4492;48.736;9.092;2023-07-31T13:57:22;25.10;81.90
8914;DHT22;4492;48.736;9.092;2023-07-31T13:59:48;24.90;84.50
8914;DHT22;4492;48.736;9.092;2023-07-31T14:02:14;24.70;83.10
8914;DHT22;4492;48.736;9.092;2023-07-31T14:04:40;24.70;84.60
8914;DHT22;4492;48.736;9.092;2023-07-31T14:07:06;24.80;83.50
8914;DHT22;4492;48.736;9.092;2023-07-31T14:09:31;24.70;84.90
8914;DHT22;4492;48.736;9.092;2023-07-31T14:11:57;24.60;85.40
8914;DHT22;4492;48.736;9.092;2023-07-31T14:14:22;24.70;84.20
8914;DHT22;4492;48.736;9.092;2023-07-31T14:16:48;24.70;83.80
8914;DHT22;4492;48.736;9.092;2023-07-31T14:19:13;24.60;85.00
8914;DHT22;4492;48.736;9.092;2023-07-31T14:21:39;24.50;83.40
8914;DHT22;4492;48.736;9.092;2023-07-31T14:24:04;24.20;85.40
8914;DHT22;4492;48.736;9.092;2023-07-31T14:26:30;24.00;86.60
8914;DHT22;4492;48.736;9.092;2023-07-31T14:28:56;24.00;85.90
8914;DHT22;4492;48.736;9.092;2023-07-31T14:31:21;24.00;85.50
8914;DHT22;4492;48.736;9.092;2023-07-31T14:33:47;24.00;87.20
8914;DHT22;4492;48.736;9.092;2023-07-31T14:36:12;24.00;87.90
8914;DHT22;4492;48.736;9.092;2023-07-31T14:38:38;24.00;84.90
8914;DHT22;4492;48.736;9.092;2023-07-31T14:41:03;24.10;85.00
8914;DHT22;4492;48.736;9.092;2023-07-31T14:43:29;24.00;84.30
8914;DHT22;4492;48.736;9.092;2023-07-31T14:45:54;24.00;83.70
8914;DHT22;4492;48.736;9.092;2023-07-31T14:48:23;24.20;83.10
8914;DHT22;4492;48.736;9.092;2023-07-31T14:50:48;24.20;83.60
8914;DHT22;4492;48.736;9.092;2023-07-31T14:53:14;24.50;82.20
8914;DHT22;4492;48.736;9.092;2023-07-31T14:55:39;24.70;81.40
8914;DHT22;4492;48.736;9.092;2023-07-31T14:58:05;24.50;80.80
8914;DHT22;4492;48.736;9.092;2023-07-31T15:00:30;24.50;80.70
8914;DHT22;4492;48.736;9.092;2023-07-31T15:02:56;24.50;81.40
8914;DHT22;4492;48.736;9.092;2023-07-31T15:05:21;24.40;81.30
8914;DHT22;4492;48.736;9.092;2023-07-31T15:07:47;24.30;82.30
8914;DHT22;4492;48.736;9.092;2023-07-31T15:10:12;24.20;83.50
8914;DHT22;4492;48.736;9.092;2023-07-31T15:12:40;24.00;82.60
8914;DHT22;4492;48.736;9.092;2023-07-31T15:15:06;23.80;82.60
8914;DHT22;4492;48.736;9.092;2023-07-31T15:17:31;23.60;83.20
8914;DHT22;4492;48.736;9.092;2023-07-31T15:19:57;23.60;83.30
8914;DHT22;4492;48.736;9.092;2023-07-31T15:22:23;23.50;82.90
8914;DHT22;4492;48.736;9.092;2023-07-31T15:24:49;23.60;83.70
8914;DHT22;4492;48.736;9.092;2023-07-31T15:27:15;23.50;84.40
8914;DHT22;4492;48.736;9.092;2023-07-31T15:29:41;23.50;84.70
8914;DHT22;4492;48.736;9.092;2023-07-31T15:32:07;23.70;83.50
8914;DHT22;4492;48.736;9.092;2023-07-31T15:34:32;24.00;83.50
8914;DHT22;4492;48.736;9.092;2023-07-31T15:36:58;24.30;82.30
8914;DHT22;4492;48.736;9.092;2023-07-31T15:39:24;24.40;82.10
8914;DHT22;4492;48.736;9.092;2023-07-31T15:41:49;24.60;81.50
8914;DHT22;4492;48.736;9.092;2023-07-31T15:44:15;24.70;81.80
8914;DHT22;4492;48.736;9.092;2023-07-31T15:46:40;24.80;81.50
8914;DHT22;4492;48.736;9.092;2023-07-31T15:49:06;25.00;82.50
8914;DHT22;4492;48.736;9.092;2023-07-31T15:51:32;25.10;80.70
8914;DHT22;4492;48.736;9.092;2023-07-31T15:53:58;25.20;81.50
8914;DHT22;4492;48.736;9.092;2023-07-31T15:56:24;25.10;81.20
8914;DHT22;4492;48.736;9.092;2023-07-31T15:58:49;25.30;81.80
8914;DHT22;4492;48.736;9.092;2023-07-31T16:01:16;25.60;82.70
8914;DHT22;4492;48.736;9.092;2023-07-31T16:03:41;25.70;79.10
8914;DHT22;4492;48.736;9.092;2023-07-31T16:06:07;25.50;79.80
8914;DHT22;4492;48.736;9.092;2023-07-31T16:08:32;25.30;79.40